Terminal Aerodrome Forecast
Issued by NWS Blacksburg, VA

Home | Current Version | Previous Version | Text Only | Print | Product List | Glossary On
Versions: 1 2 3 4 5 6 7 8 9 10 11 12 13 14 15 16 17 18 19 20 21 22 23 24 25 26 27 28 29 30 31 32 33 34 35 36 37 38
000
FTUS41 KRNK 012324
TAFBLF
TAF
KBLF 012324Z 0200/0224 28009KT P6SM SCT045 BKN060
     FM020300 23007KT P6SM SCT025 SCT080
     FM021000 24007KT P6SM SCT035 BKN100
     FM021800 26012KT P6SM VCTS BKN045CB=

USA.gov is the U.S. government's official web portal to all federal, state and local government web resources and services.